Aeroporto :
LOGIN :

Iscrizione | Disclaimer

   EN    FR    IT 

 










Sommario :    VFR   VFR Marginale   IFR   IFR Intensivo   IFR Molto Intensivo
Visibilità : 
Base nubi : 
>= 8 km
>= 3000ft
5 / 8 km
1000 / 3000 ft
1500m / 5 km
500 / 1000 ft
800 / 1500m
200 / 500 ft
< 800m
< 200 ft
Simboli :   Temporali  Nebbia  Neve Forte  Precipitazioni Forti  Vento > 20 kt
SIGMETs :   Varie  Temporali  Ghiacco  Turbolenza  Onda orograficha  Ceneri Vulcaniche






- Altitudine del aeroporto : 200 ft


EBBL - Klein Brogel AB

ULTIMO METAR :
  • 240425Z AUTO 27004KT 5000 OVC003/// 01/01 Q1024 YLO

METARs OBSOLETI :
  • 240424Z AUTO 26004KT 6000 OVC003/// 01/01 Q1024 YLO
  • 240355Z AUTO VRB02KT 5000 BR OVC002/// 01/01 Q1024 AMB
  • 240325Z AUTO VRB02KT 1700 BR OVC002/// 01/01 Q1024 AMB
  • 240255Z AUTO VRB02KT 1700 BR OVC002/// 01/01 Q1025 AMB
  • 240252Z AUTO VRB02KT 1200 BR OVC002/// 01/01 Q1025 AMB
  • 240225Z AUTO 23004KT 0650 FG OVC002/// 01/00 Q1025 RED
  • 240155Z AUTO 22004KT 0350 FG OVC002/// 01/00 Q1025 RED

TAF TAF EBBL
Valido dal 23 a 19 ore il 24 a 07 ore UTC


231541Z 2319/2407 10005KT 3000 BR SCT006
BECMG 2320/2322 VRB02KT 1500 BR FEW004
BECMG 2400/2402 0500 FZFG BKN002



MetMap, La meteo Aeronautica in un colpo d'occhio ! - Copyright ORBIFLY Dicembre 2007 - Disclaimer

ORBIFLY MET'MAP TEAM :

Programmazione e sviluppo : Alexandra Zaïnal
Concezione : Baudouin d'Aumeries
Aiuto per la programmazione : Marc-Olivier Méhu
Supporto tecnico e logistico : Manuel Goepfert
Aiuto per la traduzione : Arnaldo La Scala

Contatto : metmap@orbifly.com




FONTI E CREDITI :

   NOAA